Amarillo, Texas
Current Conditions -  °F | °C
As of 3:53 AM on Sunday 26 Oct 2014 (Local Time) from KAMA Reporting Station
Clear Clear  
Wind Chill: 64°   Ceiling: Unl
Heat Index: 64°   Visibility: 10mi
Dew Point: 47°   Wind: 20mph
Humidity: 54%   Direction: 220°SW
Pressure: 29.99"   Gusts: 26mph
Location:  35.21°N, 101.83°W
Report Text: KAMA 260853Z AUTO 22017G23KT 10SM CLR 18/08 A2999 RMK AO2 SLP103 T01780083 58017
Loading
Personal Weather Stations






























Interactive Weather Map
Tropical Storm Tracking
New forecast layout! Learn more

10-Day Weather Forecast

Advertisements
Track Severe Weather on mobile